createdAt,value
2018-09-21T00:00:11.029Z,999.7
2018-09-21T00:01:21.106Z,999.72
2018-09-21T00:02:30.913Z,999.64
2018-09-21T00:03:40.994Z,999.68
2018-09-21T00:04:50.797Z,999.71
2018-09-21T00:06:01.307Z,999.66
2018-09-21T00:07:11.387Z,999.67
2018-09-21T00:08:21.463Z,999.63
2018-09-21T00:09:31.263Z,999.61
2018-09-21T00:10:41.346Z,999.62
2018-09-21T00:11:51.412Z,999.56
2018-09-21T00:13:01.217Z,999.58
2018-09-21T00:14:11.309Z,999.56
2018-09-21T00:15:21.121Z,999.57
2018-09-21T00:16:30.932Z,999.52
2018-09-21T00:17:40.741Z,999.5
2018-09-21T00:18:50.292Z,999.52
2018-09-21T00:20:00.869Z,999.47
2018-09-21T00:21:10.950Z,999.48
2018-09-21T00:22:20.763Z,999.43
2018-09-21T00:23:31.637Z,999.4
2018-09-21T00:24:41.454Z,999.43
2018-09-21T00:25:51.009Z,999.42
2018-09-21T00:27:03.297Z,999.42
2018-09-21T00:28:13.384Z,999.38
2018-09-21T00:29:23.492Z,999.37
2018-09-21T00:30:33.565Z,999.36
2018-09-21T00:31:43.631Z,999.35
2018-09-21T00:32:53.457Z,999.37
2018-09-21T00:34:03.543Z,999.35
2018-09-21T00:35:13.343Z,999.37
2018-09-21T00:36:23.459Z,999.37
2018-09-21T00:37:33.293Z,999.35
2018-09-21T00:38:43.371Z,999.33
2018-09-21T00:39:53.435Z,999.34
2018-09-21T00:41:04.095Z,999.34
2018-09-21T00:42:13.916Z,999.32
2018-09-21T00:43:23.989Z,999.31
2018-09-21T00:44:34.066Z,999.31
2018-09-21T00:45:43.881Z,999.3
2018-09-21T00:46:53.963Z,999.31
2018-09-21T00:48:06.083Z,999.33
2018-09-21T00:49:15.630Z,999.32
2018-09-21T00:50:25.483Z,999.32
2018-09-21T00:51:35.304Z,999.29
2018-09-21T00:52:45.118Z,999.28
2018-09-21T00:53:55.191Z,999.29
2018-09-21T00:55:05.010Z,999.3
2018-09-21T00:56:15.090Z,999.24
2018-09-21T00:57:24.890Z,999.27
2018-09-21T00:58:35.076Z,999.31
2018-09-21T00:59:45.148Z,999.26
2018-09-21T01:00:55.228Z,999.28
2018-09-21T01:02:05.308Z,999.3
2018-09-21T01:03:15.126Z,999.3
2018-09-21T01:04:24.944Z,999.32
2018-09-21T01:05:35.009Z,999.31
2018-09-21T01:06:45.073Z,999.3
2018-09-21T01:07:55.194Z,999.3
2018-09-21T01:09:05.310Z,999.32
2018-09-21T01:10:15.153Z,999.31
2018-09-21T01:11:25.249Z,999.27
2018-09-21T01:12:35.339Z,999.31
2018-09-21T01:13:45.423Z,999.31
2018-09-21T01:14:55.513Z,999.26
2018-09-21T01:16:06.635Z,999.29
2018-09-21T01:17:16.705Z,999.27
2018-09-21T01:18:26.505Z,999.27
2018-09-21T01:19:36.313Z,999.27
2018-09-21T01:20:46.125Z,999.23
2018-09-21T01:21:55.958Z,999.25
2018-09-21T01:23:06.135Z,999.19
2018-09-21T01:24:16.212Z,999.22
2018-09-21T01:25:26.032Z,999.16
2018-09-21T01:26:36.101Z,999.18
2018-09-21T01:27:45.973Z,999.15
2018-09-21T01:28:55.804Z,999.13
2018-09-21T01:30:05.637Z,999.12
2018-09-21T01:31:15.717Z,999.09
2018-09-21T01:32:25.547Z,999.06
2018-09-21T01:33:35.686Z,999.08
2018-09-21T01:34:45.759Z,999.07
2018-09-21T01:35:55.848Z,999.08
2018-09-21T01:37:05.917Z,999.06
2018-09-21T01:38:16.007Z,999.03
2018-09-21T01:39:26.072Z,998.99
2018-09-21T01:40:35.888Z,999.02
2018-09-21T01:41:45.965Z,999.02
2018-09-21T01:42:55.827Z,999.05
2018-09-21T01:44:05.896Z,998.99
2018-09-21T01:45:15.970Z,999.02
2018-09-21T01:46:26.051Z,999
2018-09-21T01:47:35.859Z,998.99
2018-09-21T01:48:45.930Z,999
2018-09-21T01:49:56.024Z,998.94
2018-09-21T01:51:06.129Z,998.97
2018-09-21T01:52:15.950Z,998.92
2018-09-21T01:53:26.008Z,998.94
2018-09-21T01:54:36.093Z,998.88
2018-09-21T01:55:46.168Z,998.86
2018-09-21T01:56:56.084Z,998.86
2018-09-21T01:58:06.162Z,998.85
2018-09-21T01:59:15.962Z,998.86
2018-09-21T02:00:26.041Z,998.85
2018-09-21T02:01:36.098Z,998.81
2018-09-21T02:02:45.916Z,998.83
2018-09-21T02:03:55.708Z,998.82
2018-09-21T02:05:05.809Z,998.82
2018-09-21T02:06:15.872Z,998.82
2018-09-21T02:07:25.965Z,998.83
2018-09-21T02:08:36.043Z,998.81
2018-09-21T02:09:46.109Z,998.82
2018-09-21T02:10:56.208Z,998.78
2018-09-21T02:12:06.384Z,998.78
2018-09-21T02:13:16.463Z,998.75
2018-09-21T02:14:26.593Z,998.74
2018-09-21T02:15:36.408Z,998.76
2018-09-21T02:16:46.501Z,998.78
2018-09-21T02:17:56.568Z,998.77
2018-09-21T02:19:07.503Z,998.75
2018-09-21T02:20:17.641Z,998.73
2018-09-21T02:21:27.484Z,998.75
2018-09-21T02:22:37.559Z,998.77
2018-09-21T02:23:47.633Z,998.78
2018-09-21T02:24:57.443Z,998.75
2018-09-21T02:26:07.556Z,998.8
2018-09-21T02:27:17.608Z,998.77
2018-09-21T02:28:27.682Z,998.8
2018-09-21T02:29:37.504Z,998.8
2018-09-21T02:30:47.319Z,998.83
2018-09-21T02:31:57.387Z,998.79
2018-09-21T02:33:07.199Z,998.8
2018-09-21T02:34:17.020Z,998.78
2018-09-21T02:35:27.092Z,998.77
2018-09-21T02:36:36.956Z,998.8
2018-09-21T02:37:47.054Z,998.76
2018-09-21T02:38:56.859Z,998.75
2018-09-21T02:40:06.952Z,998.76
2018-09-21T02:41:17.135Z,998.77
2018-09-21T02:42:27.609Z,998.77
2018-09-21T02:43:37.832Z,998.74
2018-09-21T02:44:47.641Z,998.76
2018-09-21T02:45:57.732Z,998.73
2018-09-21T02:47:07.819Z,998.76
2018-09-21T02:48:17.639Z,998.75
2018-09-21T02:49:27.715Z,998.69
2018-09-21T02:50:37.530Z,998.75
2018-09-21T02:51:47.613Z,998.73
2018-09-21T02:52:57.696Z,998.73
2018-09-21T02:54:07.785Z,998.69
2018-09-21T02:55:18.548Z,998.73
2018-09-21T02:56:28.622Z,998.7
2018-09-21T02:57:38.689Z,998.69
2018-09-21T02:58:48.794Z,998.66
2018-09-21T02:59:58.605Z,998.67
2018-09-21T03:01:08.685Z,998.65
2018-09-21T03:02:18.805Z,998.69
2018-09-21T03:35:24.931Z,998.37
2018-09-21T03:36:35.089Z,998.37
2018-09-21T03:37:44.896Z,998.33
2018-09-21T03:38:55.000Z,998.36
2018-09-21T03:40:05.829Z,998.37
2018-09-21T03:41:15.967Z,998.33
2018-09-21T03:42:26.046Z,998.32
2018-09-21T03:43:35.873Z,998.29
2018-09-21T03:44:45.959Z,998.34
2018-09-21T03:45:56.088Z,998.33
2018-09-21T03:47:07.329Z,998.32
2018-09-21T03:48:17.405Z,998.35
2018-09-21T03:49:27.222Z,998.36
2018-09-21T03:50:37.305Z,998.34
2018-09-21T03:51:47.412Z,998.35
2018-09-21T03:52:57.268Z,998.34
2018-09-21T03:54:07.359Z,998.3
2018-09-21T03:55:17.496Z,998.29
2018-09-21T03:56:27.583Z,998.32
2018-09-21T03:57:37.660Z,998.3
2018-09-21T03:58:47.733Z,998.28
2018-09-21T03:59:57.783Z,998.3
2018-09-21T04:01:07.733Z,998.3
2018-09-21T04:02:17.893Z,998.29
2018-09-21T04:03:27.980Z,998.29
2018-09-21T04:04:38.103Z,998.23
2018-09-21T04:05:48.186Z,998.27
2018-09-21T04:06:58.277Z,998.24
2018-09-21T04:08:08.363Z,998.24
2018-09-21T04:09:18.429Z,998.23
2018-09-21T04:10:28.548Z,998.25
2018-09-21T04:11:38.647Z,998.24
2018-09-21T04:12:48.740Z,998.22
2018-09-21T04:13:58.810Z,998.25
2018-09-21T04:15:08.874Z,998.22
2018-09-21T04:16:18.962Z,998.21
2018-09-21T04:17:28.794Z,998.23
2018-09-21T04:18:38.885Z,998.25
2018-09-21T04:19:48.964Z,998.23
2018-09-21T04:20:59.053Z,998.26
2018-09-21T04:22:08.599Z,998.25
2018-09-21T04:23:18.427Z,998.23
2018-09-21T04:24:28.535Z,998.24
2018-09-21T04:25:38.342Z,998.27
2018-09-21T04:26:48.424Z,998.28
2018-09-21T04:27:58.222Z,998.29
2018-09-21T04:29:08.039Z,998.24
2018-09-21T04:30:18.123Z,998.21
2018-09-21T04:31:28.199Z,998.29
2018-09-21T04:32:38.005Z,998.29
2018-09-21T04:33:48.096Z,998.28
2018-09-21T04:34:58.159Z,998.24
2018-09-21T04:36:10.639Z,998.25
2018-09-21T04:37:20.958Z,998.25
2018-09-21T04:38:31.049Z,998.23
2018-09-21T04:39:41.126Z,998.25
2018-09-21T04:40:51.211Z,998.23
2018-09-21T04:42:03.794Z,998.26
2018-09-21T04:43:13.868Z,998.24
2018-09-21T04:44:23.709Z,998.23
2018-09-21T04:45:33.900Z,998.23
2018-09-21T04:46:43.591Z,998.26
2018-09-21T04:47:53.661Z,998.21
2018-09-21T04:49:03.746Z,998.23
2018-09-21T04:50:13.842Z,998.22
2018-09-21T04:51:23.926Z,998.22
2018-09-21T04:52:34.018Z,998.21
2018-09-21T04:53:44.151Z,998.2
2018-09-21T04:54:54.238Z,998.2
2018-09-21T04:56:05.041Z,998.21
2018-09-21T04:57:15.168Z,998.2
2018-09-21T04:58:24.989Z,998.19
2018-09-21T04:59:35.052Z,998.19
2018-09-21T05:00:44.866Z,998.15
2018-09-21T05:01:54.433Z,998.17
2018-09-21T05:03:04.590Z,998.13
2018-09-21T05:04:14.688Z,998.16
2018-09-21T05:05:24.487Z,998.14
2018-09-21T05:06:34.310Z,998.15
2018-09-21T05:07:44.393Z,998.12
2018-09-21T05:08:54.472Z,998.15
2018-09-21T05:10:04.538Z,998.15
2018-09-21T05:11:14.631Z,998.17
2018-09-21T05:12:24.700Z,998.16
2018-09-21T05:13:34.859Z,998.11
2018-09-21T05:14:45.312Z,998.14
2018-09-21T05:15:55.390Z,998.15
2018-09-21T05:17:05.564Z,998.14
2018-09-21T05:18:15.664Z,998.21
2018-09-21T05:19:25.741Z,998.2
2018-09-21T05:20:35.835Z,998.2
2018-09-21T05:21:45.653Z,998.21
2018-09-21T05:22:55.731Z,998.22
2018-09-21T05:24:05.873Z,998.21
2018-09-21T05:25:15.675Z,998.2
2018-09-21T05:26:25.762Z,998.21
2018-09-21T05:27:35.330Z,998.23
2018-09-21T05:28:45.676Z,998.23
2018-09-21T05:29:55.775Z,998.24
2018-09-21T05:31:09.251Z,998.24
2018-09-21T05:32:19.375Z,998.21
2018-09-21T05:33:29.457Z,998.21
2018-09-21T05:34:39.633Z,998.25
2018-09-21T05:35:50.803Z,998.23
2018-09-21T05:37:04.028Z,998.2
2018-09-21T05:38:14.115Z,998.2
2018-09-21T05:39:24.175Z,998.26
2018-09-21T05:40:34.261Z,998.23
2018-09-21T05:41:44.347Z,998.21
2018-09-21T05:42:54.174Z,998.22
2018-09-21T05:44:04.404Z,998.23
2018-09-21T05:45:14.219Z,998.23
2018-09-21T05:46:24.053Z,998.25
2018-09-21T05:47:34.145Z,998.27
2018-09-21T05:48:44.236Z,998.28
2018-09-21T05:49:54.325Z,998.29
2018-09-21T05:51:04.409Z,998.3
2018-09-21T05:52:14.502Z,998.31
2018-09-21T05:53:24.564Z,998.31
2018-09-21T05:54:34.671Z,998.31
2018-09-21T05:55:44.501Z,998.3
2018-09-21T05:56:54.576Z,998.3
2018-09-21T05:58:04.646Z,998.31
2018-09-21T05:59:14.484Z,998.3
2018-09-21T06:00:24.576Z,998.28
2018-09-21T06:01:34.790Z,998.32
2018-09-21T06:02:44.907Z,998.28
2018-09-21T06:03:54.933Z,998.23
2018-09-21T06:05:05.013Z,998.22
2018-09-21T06:06:15.106Z,998.19
2018-09-21T06:07:25.236Z,998.16
2018-09-21T06:08:35.044Z,998.19
2018-09-21T06:09:45.126Z,998.13
2018-09-21T06:10:55.207Z,998.13
2018-09-21T06:12:05.016Z,998.13
2018-09-21T06:13:15.090Z,998.15
2018-09-21T06:14:24.919Z,998.15
2018-09-21T06:15:34.736Z,998.12
2018-09-21T06:16:44.817Z,998.16
2018-09-21T06:17:54.645Z,998.13
2018-09-21T06:19:04.726Z,998.12
2018-09-21T06:20:14.906Z,998.12
2018-09-21T06:21:24.732Z,998.1
2018-09-21T06:22:44.849Z,998.12
2018-09-21T06:23:55.710Z,998.1
2018-09-21T06:25:05.835Z,998.11
2018-09-21T06:26:15.918Z,998.03
2018-09-21T06:27:25.741Z,998.03
2018-09-21T06:28:35.553Z,997.99
2018-09-21T06:29:45.664Z,997.93
2018-09-21T06:30:55.747Z,997.93
2018-09-21T06:32:05.891Z,997.92
2018-09-21T06:33:15.699Z,997.91
2018-09-21T06:34:25.774Z,997.91
2018-09-21T06:35:35.902Z,997.92
2018-09-21T06:36:45.985Z,997.92
2018-09-21T06:37:55.806Z,997.87
2018-09-21T06:39:06.578Z,997.88
2018-09-21T06:40:16.416Z,997.89
2018-09-21T06:41:26.523Z,997.93
2018-09-21T06:42:36.615Z,997.86
2018-09-21T06:43:46.247Z,997.87
2018-09-21T06:44:56.318Z,997.85
2018-09-21T06:46:06.400Z,997.81
2018-09-21T06:47:16.542Z,997.85
2018-09-21T06:48:26.714Z,997.87
2018-09-21T06:49:36.813Z,997.85
2018-09-21T06:50:47.062Z,997.84
2018-09-21T06:51:57.152Z,997.82
2018-09-21T06:53:07.319Z,997.78
2018-09-21T06:54:17.425Z,997.77
2018-09-21T06:55:27.256Z,997.77
2018-09-21T06:56:37.341Z,997.73
2018-09-21T06:57:47.412Z,997.72
2018-09-21T06:58:57.507Z,997.72
2018-09-21T07:00:07.683Z,997.72
2018-09-21T07:01:17.525Z,997.73
2018-09-21T07:02:27.743Z,997.72
2018-09-21T07:03:37.833Z,997.74
2018-09-21T07:04:47.993Z,997.69
2018-09-21T07:05:57.826Z,997.69
2018-09-21T07:07:08.199Z,997.69
2018-09-21T07:08:18.308Z,997.67
2018-09-21T07:09:28.397Z,997.7
2018-09-21T07:10:38.522Z,997.66
2018-09-21T07:11:48.602Z,997.71
2018-09-21T07:12:58.709Z,997.65
2018-09-21T07:14:10.017Z,997.64
2018-09-21T07:15:19.829Z,997.62
2018-09-21T07:16:29.918Z,997.61
2018-09-21T07:17:39.994Z,997.61
2018-09-21T07:18:50.110Z,997.63
2018-09-21T07:20:00.344Z,997.59
2018-09-21T07:21:10.455Z,997.59
2018-09-21T07:22:20.541Z,997.58
2018-09-21T07:23:30.633Z,997.59
2018-09-21T07:24:40.716Z,997.57
2018-09-21T07:25:50.802Z,997.55
2018-09-21T07:27:00.875Z,997.57
2018-09-21T07:28:10.946Z,997.52
2018-09-21T07:29:21.059Z,997.5
2018-09-21T07:30:31.130Z,997.53
2018-09-21T07:31:41.213Z,997.54
2018-09-21T07:32:51.024Z,997.52
2018-09-21T07:34:02.520Z,997.5
2018-09-21T07:35:12.590Z,997.5
2018-09-21T07:36:22.139Z,997.52
2018-09-21T07:37:31.702Z,997.5
2018-09-21T07:38:42.065Z,997.51
2018-09-21T07:39:51.878Z,997.51
2018-09-21T07:41:02.514Z,997.49
2018-09-21T07:42:12.604Z,997.48
2018-09-21T07:43:22.734Z,997.47
2018-09-21T07:44:32.578Z,997.49
2018-09-21T07:45:43.199Z,997.45
2018-09-21T07:46:53.287Z,997.44
2018-09-21T07:48:03.383Z,997.47
2018-09-21T07:49:13.234Z,997.47
2018-09-21T07:50:23.100Z,997.47
2018-09-21T07:51:33.447Z,997.47
2018-09-21T07:52:43.553Z,997.48
2018-09-21T07:53:53.637Z,997.46
2018-09-21T07:55:03.724Z,997.43
2018-09-21T07:56:13.827Z,997.37
2018-09-21T07:57:23.960Z,997.38
2018-09-21T07:58:33.791Z,997.37
2018-09-21T07:59:43.891Z,997.34
2018-09-21T08:00:53.448Z,997.35
2018-09-21T08:02:03.546Z,997.32
2018-09-21T08:03:13.375Z,997.31
2018-09-21T08:04:22.923Z,997.25
2018-09-21T08:05:32.744Z,997.27
2018-09-21T08:06:42.849Z,997.25
2018-09-21T08:07:52.937Z,997.25
2018-09-21T08:09:03.826Z,997.26
2018-09-21T08:10:13.941Z,997.3
2018-09-21T08:11:23.749Z,997.3
2018-09-21T08:12:33.576Z,997.25
2018-09-21T08:13:43.783Z,997.28
2018-09-21T08:14:53.874Z,997.25
2018-09-21T08:16:03.977Z,997.24
2018-09-21T08:17:14.090Z,997.2
2018-09-21T08:18:24.193Z,997.17
2018-09-21T08:19:34.412Z,997.22
2018-09-21T08:20:44.572Z,997.19
2018-09-21T08:21:54.671Z,997.2
2018-09-21T08:23:04.799Z,997.17
2018-09-21T08:24:14.636Z,997.17
2018-09-21T08:25:24.729Z,997.15
2018-09-21T08:26:34.891Z,997.12
2018-09-21T08:27:45.591Z,997.13
2018-09-21T08:28:55.422Z,997.12
2018-09-21T08:30:05.679Z,997.08
2018-09-21T08:31:15.771Z,997.13
2018-09-21T08:32:25.552Z,997.09
2018-09-21T08:33:35.634Z,997.08
2018-09-21T08:34:45.198Z,997.04
2018-09-21T08:35:55.304Z,997.06
2018-09-21T08:37:05.449Z,997.09
2018-09-21T08:38:16.050Z,997.04
2018-09-21T08:39:25.895Z,997.05
2018-09-21T08:40:35.994Z,997.05
2018-09-21T08:41:46.124Z,997.04
2018-09-21T08:42:56.065Z,996.99
2018-09-21T08:44:05.965Z,997.02
2018-09-21T08:45:16.175Z,996.98
2018-09-21T08:46:26.363Z,997.01
2018-09-21T08:47:36.472Z,996.97
2018-09-21T08:48:46.305Z,996.96
2018-09-21T08:49:56.137Z,996.92
2018-09-21T08:51:06.083Z,996.95
2018-09-21T08:52:16.172Z,996.93
2018-09-21T08:53:26.275Z,996.92
2018-09-21T08:54:36.375Z,996.91
2018-09-21T08:55:46.530Z,996.94
2018-09-21T08:56:56.626Z,996.89
2018-09-21T08:58:06.714Z,996.91
2018-09-21T08:59:16.827Z,996.87
2018-09-21T09:00:26.916Z,996.9
2018-09-21T09:01:37.003Z,996.88
2018-09-21T09:02:46.867Z,996.84
2018-09-21T09:03:56.550Z,996.82
2018-09-21T09:05:06.639Z,996.82
2018-09-21T09:06:16.726Z,996.78
2018-09-21T09:07:26.611Z,996.77
2018-09-21T09:08:36.700Z,996.71
2018-09-21T09:09:46.532Z,996.7
2018-09-21T09:10:56.641Z,996.67
2018-09-21T09:12:06.739Z,996.68
2018-09-21T09:13:16.558Z,996.67
2018-09-21T09:14:26.660Z,996.65
2018-09-21T09:15:36.752Z,996.63
2018-09-21T09:16:46.828Z,996.57
2018-09-21T09:17:56.908Z,996.58
2018-09-21T09:19:07.058Z,996.59
2018-09-21T09:20:16.932Z,996.56
2018-09-21T09:21:26.763Z,996.55
2018-09-21T09:22:36.862Z,996.57
2018-09-21T09:23:46.937Z,996.55
2018-09-21T09:24:58.055Z,996.54
2018-09-21T09:26:09.309Z,996.49
2018-09-21T09:27:19.398Z,996.56
2018-09-21T09:28:29.212Z,996.52
2018-09-21T09:29:39.284Z,996.52
2018-09-21T09:30:49.291Z,996.5
2018-09-21T09:31:59.388Z,996.48
2018-09-21T09:33:09.496Z,996.51
2018-09-21T09:34:19.310Z,996.46
2018-09-21T09:35:29.420Z,996.46
2018-09-21T09:36:39.288Z,996.43
2018-09-21T09:37:49.284Z,996.45
2018-09-21T09:38:59.102Z,996.42
2018-09-21T09:40:08.943Z,996.4
2018-09-21T09:41:19.048Z,996.41
2018-09-21T09:42:29.184Z,996.37
2018-09-21T09:43:38.782Z,996.35
2018-09-21T09:44:48.881Z,996.39
2018-09-21T09:45:58.976Z,996.34
2018-09-21T09:47:09.055Z,996.35
2018-09-21T09:48:18.991Z,996.37
2018-09-21T09:49:29.524Z,996.35
2018-09-21T09:50:39.625Z,996.32
2018-09-21T09:51:49.716Z,996.35
2018-09-21T09:52:59.821Z,996.34
2018-09-21T09:54:09.911Z,996.33
2018-09-21T09:55:20.007Z,996.31
2018-09-21T09:56:30.096Z,996.33
2018-09-21T09:57:40.185Z,996.25
2018-09-21T09:58:50.000Z,996.26
2018-09-21T10:00:01.955Z,996.27
2018-09-21T10:01:12.045Z,996.26
2018-09-21T10:02:22.161Z,996.29
2018-09-21T10:03:32.296Z,996.25
2018-09-21T10:04:42.700Z,996.26
2018-09-21T10:05:52.837Z,996.24
2018-09-21T10:07:02.651Z,996.25
2018-09-21T10:08:12.222Z,996.23
2018-09-21T10:09:22.326Z,996.19
2018-09-21T10:10:32.147Z,996.21
2018-09-21T10:11:42.026Z,996.18
2018-09-21T10:12:51.876Z,996.19
2018-09-21T10:14:01.993Z,996.13
2018-09-21T10:15:12.101Z,996.13
2018-09-21T10:16:22.245Z,996.06
2018-09-21T10:17:32.320Z,996.04
2018-09-21T10:18:42.408Z,996.04
2018-09-21T10:19:52.480Z,996.06
2018-09-21T10:21:02.316Z,996.07
2018-09-21T10:22:12.154Z,996.02
2018-09-21T10:23:22.341Z,995.96
2018-09-21T10:24:32.496Z,995.95
2018-09-21T10:25:42.149Z,995.91
2018-09-21T10:26:51.752Z,995.89
2018-09-21T10:28:03.169Z,995.98
2018-09-21T10:29:14.460Z,995.95
2018-09-21T10:30:24.285Z,995.87
2018-09-21T10:31:34.371Z,995.85
2018-09-21T10:32:44.249Z,995.91
2018-09-21T10:33:54.387Z,995.87
2018-09-21T10:35:04.212Z,995.87
2018-09-21T10:36:14.093Z,995.87
2018-09-21T10:37:24.236Z,995.82
2018-09-21T10:38:34.079Z,995.8
2018-09-21T10:39:44.308Z,995.79
2018-09-21T10:40:54.872Z,995.81
2018-09-21T10:42:05.015Z,995.81
2018-09-21T10:43:15.327Z,995.78
2018-09-21T10:44:25.273Z,995.75
2018-09-21T10:45:35.092Z,995.77
2018-09-21T10:46:45.230Z,995.76
2018-09-21T10:47:55.358Z,995.74
2018-09-21T10:49:05.444Z,995.7
2018-09-21T10:50:15.559Z,995.76
2018-09-21T10:51:25.408Z,995.75
2018-09-21T10:52:35.555Z,995.7
2018-09-21T10:53:45.735Z,995.78
2018-09-21T10:54:55.301Z,995.72
2018-09-21T10:56:05.386Z,995.77
2018-09-21T10:57:15.489Z,995.69
2018-09-21T10:58:25.368Z,995.66
2018-09-21T10:59:35.688Z,995.66
2018-09-21T11:00:45.781Z,995.64
2018-09-21T11:01:55.618Z,995.61
2018-09-21T11:03:05.726Z,995.59
2018-09-21T11:04:15.935Z,995.57
2018-09-21T11:05:26.059Z,995.55
2018-09-21T11:06:36.148Z,995.56
2018-09-21T11:07:46.270Z,995.55
2018-09-21T11:08:56.368Z,995.53
2018-09-21T11:10:06.448Z,995.56
2018-09-21T11:11:16.557Z,995.54
2018-09-21T11:12:26.643Z,995.58
2018-09-21T11:13:36.725Z,995.52
2018-09-21T11:14:46.811Z,995.51
2018-09-21T11:15:56.930Z,995.49
2018-09-21T11:17:06.782Z,995.55
2018-09-21T11:18:16.851Z,995.52
2018-09-21T11:19:26.672Z,995.52
2018-09-21T11:20:36.238Z,995.51
2018-09-21T11:21:46.315Z,995.51
2018-09-21T11:22:56.160Z,995.44
2018-09-21T11:24:06.239Z,995.46
2018-09-21T11:25:16.322Z,995.41
2018-09-21T11:26:26.436Z,995.43
2018-09-21T11:27:36.533Z,995.39
2018-09-21T11:28:46.375Z,995.4
2018-09-21T11:29:56.266Z,995.34
2018-09-21T11:31:06.360Z,995.35
2018-09-21T11:32:16.245Z,995.27
2018-09-21T11:33:26.366Z,995.32
2018-09-21T11:34:36.213Z,995.3
2018-09-21T11:35:46.068Z,995.33
2018-09-21T11:36:56.005Z,995.28
2018-09-21T11:38:06.160Z,995.31
2018-09-21T11:39:16.252Z,995.31
2018-09-21T11:40:25.823Z,995.3
2018-09-21T11:41:35.993Z,995.35
2018-09-21T11:42:46.083Z,995.32
2018-09-21T11:43:56.183Z,995.3
2018-09-21T11:45:06.622Z,995.26
2018-09-21T11:46:16.462Z,995.29
2018-09-21T11:47:26.690Z,995.2
2018-09-21T11:48:37.792Z,995.21
2018-09-21T11:49:47.678Z,995.24
2018-09-21T11:50:57.520Z,995.23
2018-09-21T11:52:07.650Z,995.27
2018-09-21T11:53:17.738Z,995.28
2018-09-21T11:54:27.821Z,995.21
2018-09-21T11:55:38.036Z,995.27
2018-09-21T11:56:47.866Z,995.16
2018-09-21T11:57:57.942Z,995.17
2018-09-21T11:59:10.048Z,995.12
2018-09-21T12:00:20.141Z,995.1
2018-09-21T12:01:30.018Z,995.05
2018-09-21T12:02:39.887Z,995.12
2018-09-21T12:03:49.719Z,995.04
2018-09-21T12:04:59.827Z,995.05
2018-09-21T12:06:10.294Z,995.05
2018-09-21T12:07:20.185Z,995.02
2018-09-21T12:08:30.276Z,995.03
2018-09-21T12:09:40.384Z,994.98
2018-09-21T12:10:50.487Z,995.04
2018-09-21T12:12:00.137Z,995.03
2018-09-21T12:13:10.248Z,994.98
2018-09-21T12:14:20.335Z,994.93
2018-09-21T12:15:30.439Z,994.97
2018-09-21T12:16:40.254Z,994.94
2018-09-21T12:17:50.099Z,994.97
2018-09-21T12:18:59.923Z,994.93
2018-09-21T12:20:10.015Z,994.96
2018-09-21T12:21:20.092Z,994.94
2018-09-21T12:22:30.199Z,994.95
2018-09-21T12:23:39.854Z,994.96
2018-09-21T12:24:49.978Z,994.93
2018-09-21T12:26:00.078Z,994.95
2018-09-21T12:27:10.169Z,994.98
2018-09-21T12:28:20.041Z,994.93
2018-09-21T12:29:29.621Z,994.89
2018-09-21T12:30:39.729Z,994.9
2018-09-21T12:31:49.806Z,994.89
2018-09-21T12:32:59.898Z,994.84
2018-09-21T12:34:09.991Z,994.84
2018-09-21T12:35:20.150Z,994.86
2018-09-21T12:36:30.318Z,994.85
2018-09-21T12:37:40.637Z,994.79
2018-09-21T12:38:50.721Z,994.77
2018-09-21T12:40:03.771Z,994.78
2018-09-21T12:41:13.857Z,994.77
2018-09-21T12:42:23.713Z,994.79
2018-09-21T12:43:34.093Z,994.78
2018-09-21T12:44:43.911Z,994.76
2018-09-21T12:45:54.291Z,994.78
2018-09-21T12:47:04.074Z,994.74
2018-09-21T12:48:14.107Z,994.74
2018-09-21T12:49:24.145Z,994.66
2018-09-21T12:50:34.204Z,994.75
2018-09-21T12:51:44.691Z,994.69
2018-09-21T12:52:54.462Z,994.68
2018-09-21T12:54:04.496Z,994.65
2018-09-21T12:55:14.528Z,994.64
2018-09-21T12:56:24.352Z,994.65
2018-09-21T12:57:34.307Z,994.59
2018-09-21T12:58:44.703Z,994.63
2018-09-21T12:59:55.558Z,994.55
2018-09-21T13:01:05.596Z,994.55
2018-09-21T13:02:15.649Z,994.53
2018-09-21T13:03:25.736Z,994.47
2018-09-21T13:04:35.778Z,994.45
2018-09-21T13:05:45.542Z,994.49
2018-09-21T13:06:55.579Z,994.47
2018-09-21T13:08:05.663Z,994.46
2018-09-21T13:09:15.754Z,994.49
2018-09-21T13:10:25.848Z,994.45
2018-09-21T13:11:35.716Z,994.42
2018-09-21T13:12:45.807Z,994.39
2018-09-21T13:13:55.895Z,994.42
2018-09-21T13:15:06.040Z,994.39
2018-09-21T13:16:16.149Z,994.38
2018-09-21T13:17:26.261Z,994.37
2018-09-21T13:18:36.364Z,994.32
2018-09-21T13:19:46.480Z,994.32
2018-09-21T13:20:56.374Z,994.29
2018-09-21T13:22:06.466Z,994.23
2018-09-21T13:23:16.312Z,994.25
2018-09-21T13:24:26.153Z,994.25
2018-09-21T13:25:36.315Z,994.25
2018-09-21T13:26:46.188Z,994.24
2018-09-21T13:27:56.446Z,994.21
2018-09-21T13:29:06.526Z,994.19
2018-09-21T13:30:16.368Z,994.2
2018-09-21T13:31:26.194Z,994.15
2018-09-21T13:32:36.340Z,994.18
2018-09-21T13:33:46.459Z,994.11
2018-09-21T13:34:56.536Z,994.14
2018-09-21T13:36:07.687Z,994.1
2018-09-21T13:37:17.770Z,994.05
2018-09-21T13:38:27.867Z,994.1
2018-09-21T13:39:37.693Z,994.05
2018-09-21T13:40:47.800Z,994.05
2018-09-21T13:41:57.909Z,994.05
2018-09-21T13:43:09.098Z,994.03
2018-09-21T13:44:18.916Z,994.02
2018-09-21T13:45:29.009Z,994.03
2018-09-21T13:46:38.849Z,993.98
2018-09-21T13:47:48.945Z,993.98
2018-09-21T13:48:58.795Z,994.02
2018-09-21T13:50:10.968Z,993.98
2018-09-21T13:51:20.801Z,993.99
2018-09-21T13:52:30.911Z,993.95
2018-09-21T13:53:41.002Z,993.99
2018-09-21T13:54:51.098Z,993.93
2018-09-21T13:56:00.937Z,993.95
2018-09-21T13:57:11.020Z,993.91
2018-09-21T13:58:20.850Z,993.9
2018-09-21T13:59:30.953Z,993.89
2018-09-21T14:00:40.800Z,993.87
2018-09-21T14:01:50.408Z,993.89
2018-09-21T14:03:00.515Z,993.82
2018-09-21T14:04:10.621Z,993.83
2018-09-21T14:05:20.494Z,993.8
2018-09-21T14:06:30.447Z,993.81
2018-09-21T14:07:40.355Z,993.81
2018-09-21T14:08:50.440Z,993.81
2018-09-21T14:10:00.524Z,993.8
2018-09-21T14:11:10.645Z,993.8
2018-09-21T14:12:20.731Z,993.81
2018-09-21T14:13:30.835Z,993.78
2018-09-21T14:14:40.952Z,993.77
2018-09-21T14:15:51.058Z,993.76
2018-09-21T14:17:02.423Z,993.81
2018-09-21T14:18:12.526Z,993.76
2018-09-21T14:19:22.650Z,993.74
2018-09-21T14:20:32.736Z,993.72
2018-09-21T14:21:42.862Z,993.72
2018-09-21T14:22:53.020Z,993.71
2018-09-21T14:24:03.157Z,993.71
2018-09-21T14:25:13.010Z,993.73
2018-09-21T14:26:23.116Z,993.73
2018-09-21T14:27:33.205Z,993.69
2018-09-21T14:28:43.297Z,993.65
2018-09-21T14:29:53.197Z,993.63
2018-09-21T14:31:05.508Z,993.63
2018-09-21T14:32:15.600Z,993.6
2018-09-21T14:33:25.690Z,993.61
2018-09-21T14:34:35.800Z,993.59
2018-09-21T14:35:45.931Z,993.59
2018-09-21T14:36:56.311Z,993.55
2018-09-21T14:38:06.402Z,993.58
2018-09-21T14:39:16.516Z,993.6
2018-09-21T14:40:26.377Z,993.59
2018-09-21T14:41:36.488Z,993.57
2018-09-21T14:42:46.616Z,993.55
2018-09-21T14:43:56.732Z,993.58
2018-09-21T14:45:06.571Z,993.57
2018-09-21T14:46:16.650Z,993.55
2018-09-21T14:47:26.742Z,993.51
2018-09-21T14:48:36.881Z,993.51
2018-09-21T14:49:47.002Z,993.48
2018-09-21T14:50:57.108Z,993.44
2018-09-21T14:52:06.700Z,993.48
2018-09-21T14:53:16.792Z,993.46
2018-09-21T14:54:26.962Z,993.44
2018-09-21T14:55:36.791Z,993.43
2018-09-21T14:56:46.901Z,993.41
2018-09-21T14:57:56.474Z,993.42
2018-09-21T14:59:06.546Z,993.4
2018-09-21T15:00:16.917Z,993.4
2018-09-21T15:01:27.017Z,993.36
2018-09-21T15:02:37.105Z,993.39
2018-09-21T15:03:46.926Z,993.38
2018-09-21T15:04:57.036Z,993.38
2018-09-21T15:06:08.435Z,993.37
2018-09-21T15:07:18.280Z,993.39
2018-09-21T15:08:28.486Z,993.36